Aérodrome :
LOGIN :

S'inscrire | Disclaimer

   EN    FR    IT 

 










Légende :    VFR   VFR Marginal   IFR   IFR Intensif   IFR Très Intensif
Visi : 
Plafond : 
>= 8 km
>= 3000ft
5 à 8 km
1000 à 3000 ft
1500m à 5 km
500 à 1000 ft
800 à 1500m
200 à 500 ft
< 800m
< 200 ft
Symboles :   Orages  Brouillard  Fortes neiges  Fortes précipitations  Vent > 20 kt
SIGMETs :   Divers  Orages  Givrage  Turbulence  Onde Orograph.  Cendres Volcan.







- Altitude de l'aérodrome : 1411 ft
- Code IATA : ZHI


LSZG - Grenchen

DERNIER METAR :
  • 241620Z AUTO 04006KT 9999 FEW060 20/11 Q1013

METARs EXPIRÉS :
  • 241550Z 06008KT 9999 FEW065 BKN250 21/11 Q1013 NOSIG
  • 241520Z 04004KT 9999 FEW065 BKN250 22/09 Q1013 NOSIG
  • 241450Z 08004KT 040V110 9999 FEW065 BKN250 22/10 Q1014 NOSIG
  • 241420Z 06004KT 030V150 9999 FEW065 BKN250 22/08 Q1014 NOSIG
  • 241350Z 07004KT 030V160 9999 FEW065 BKN250 22/11 Q1014 NOSIG

TAF TAF LSZG
Valide du 24 à 15h jusqu'au 25 à 00h UTC


241425Z 2415/2424 07004KT 9999 FEW065 BKN250
PROB40
TEMPO 2415/2424 SHRA FEW050TCU
PROB30
TEMPO 2415/2420 32015G27KT TSRA FEW040CB
ATIS : +41 32 396 96 33
Pas de NOTAMs connus pour ce terrain.



MET'MAP, la Météo Aéronautique d'un coup d'oeil ! - Copyright ORBIFLY Décembre 2007 - Disclaimer

ORBIFLY MET'MAP TEAM :

Programmation & Développement : Alexandra Zaïnal
Conception & Développement : Baudouin d'Aumeries
Co-Programmation & Développement : Marc-Olivier Méhu
Soutien technique & logistique : Manuel Goepfert

Contact : metmap@orbifly.com




SOURCES & CREDITS :

   NOAA